Tabor, South Dakota
Current Conditions -  °F | °C
As of 1:15 AM on Thursday 18 Dec 2014 (Local Time) from KYKN Reporting Station
Overcast Overcast  
Wind Chill: 18°   Ceiling: 7000
Heat Index: 18°   Visibility: 10mi
Dew Point: 14°   Wind: 3mph
Humidity: 86%   Direction: 70°ENE
Pressure: 30.25"   Gusts: NA
Location:  42.95°N, 97.66°W
Report Text: KYKN 180715Z AUTO 07003KT 10SM OVC070 M08/M10 A3025 RMK AO1
Loading
Personal Weather Stations






























Interactive Weather Map New forecast layout! Learn more

10-Day Weather Forecast

Advertisements
Track Severe Weather on mobile